Baudette International Airport Baudette US
ICAO: KBDE
IATA: BDE
Category: Medium
Scheduled Services: No

Elevation: 1086 ft
TransAlt. 18000 ft.

Airport Communications:
ASOS:126.775
PRINCETON RDO:122.4
CTAF/UNICOM:122.8

KBDE Zoom In..

Runways:

(A) RW 12 length 5499 ft width 100 ft
---- / hdg 117

(B) RW 30 length 5499 ft width 100 ft
ILS 108.30 / hdg 297

Location; KBDE
Day. 23 / Time. 07.53 Zulu
* Altimeter: 30.01
* Temperature: 19° c. 66.2°f.
* Wind from: 180° Speed 04 kn.
Dewpoint: 18° c.
Visibility: 10 Statute Miles.
Clouds: Overcast 7000 ft.

KBDE 230753Z AUTO 18004KT 10SM OVC070 19/18 A3001 RMK AO2 SLP161 T01940178


Wind From 180°
Speed 04 kn.

 
 
jpsmedia.com for Web Design worldairports.se 2018   terms of use